createdAt,value
2018-03-30T00:02:01.688Z,12.50
2018-03-30T00:04:30.798Z,11.53
2018-03-30T00:07:06.687Z,14.17
2018-03-30T00:09:54.160Z,11.00
2018-03-30T00:12:23.281Z,8.27
2018-03-30T00:14:52.388Z,14.83
2018-03-30T00:17:21.477Z,10.68
2018-03-30T00:19:50.617Z,12.53
2018-03-30T00:22:20.490Z,10.97
2018-03-30T00:24:49.597Z,10.10
2018-03-30T00:27:19.468Z,9.40
2018-03-30T00:29:48.570Z,13.47
2018-03-30T00:32:17.667Z,16.60
2018-03-30T00:34:46.794Z,8.67
2018-03-30T00:37:15.880Z,9.90
2018-03-30T00:39:45.022Z,9.90
2018-03-30T00:42:14.123Z,9.23
2018-03-30T00:44:43.223Z,9.20
2018-03-30T00:47:14.087Z,9.00
2018-03-30T00:49:43.165Z,10.50
2018-03-30T00:52:13.332Z,9.72
2018-03-30T00:54:42.417Z,9.90
2018-03-30T00:57:11.533Z,10.20
2018-03-30T00:59:40.616Z,12.97
2018-03-30T01:02:09.732Z,10.23
2018-03-30T01:04:39.619Z,12.13
2018-03-30T01:07:09.507Z,11.40
2018-03-30T01:09:38.596Z,13.20
2018-03-30T01:12:07.721Z,10.17
2018-03-30T01:14:36.816Z,10.90
2018-03-30T01:17:05.938Z,8.40
2018-03-30T01:19:35.035Z,10.30
2018-03-30T01:22:04.920Z,11.77
2018-03-30T01:24:34.017Z,9.30
2018-03-30T01:27:03.139Z,10.93
2018-03-30T01:29:32.231Z,13.97
2018-03-30T01:32:01.358Z,11.03
2018-03-30T01:34:30.460Z,13.60
2018-03-30T01:36:59.585Z,12.60
2018-03-30T01:39:28.693Z,11.50
2018-03-30T01:41:57.789Z,12.30
2018-03-30T01:44:26.925Z,9.40
2018-03-30T01:46:55.998Z,8.37
2018-03-30T01:49:25.124Z,9.13
2018-03-30T01:51:54.974Z,8.97
2018-03-30T01:54:24.094Z,9.63
2018-03-30T01:56:53.172Z,9.37
2018-03-30T01:59:22.298Z,8.27
2018-03-30T02:01:51.390Z,9.17
2018-03-30T02:04:20.522Z,10.07
2018-03-30T02:06:50.389Z,11.80
2018-03-30T02:09:19.487Z,9.93
2018-03-30T02:11:49.357Z,9.33
2018-03-30T02:14:18.456Z,10.32
2018-03-30T02:16:47.559Z,8.43
2018-03-30T02:19:16.642Z,9.67
2018-03-30T02:21:45.762Z,11.50
2018-03-30T02:24:14.847Z,16.03
2018-03-30T02:26:43.966Z,9.30
2018-03-30T02:29:13.397Z,7.95
2018-03-30T02:31:42.511Z,9.57
2018-03-30T02:34:13.602Z,10.97
2018-03-30T02:36:42.715Z,14.30
2018-03-30T02:39:11.820Z,10.50
2018-03-30T02:41:40.908Z,9.40
2018-03-30T02:44:10.016Z,8.70
2018-03-30T02:46:39.889Z,11.20
2018-03-30T02:49:08.989Z,11.60
2018-03-30T02:51:38.070Z,8.80
2018-03-30T02:54:07.180Z,8.10
2018-03-30T02:56:36.277Z,12.97
2018-03-30T02:59:05.386Z,11.30
2018-03-30T03:01:34.485Z,7.40
2018-03-30T03:04:03.588Z,8.57
2018-03-30T03:06:32.674Z,9.30
2018-03-30T03:09:01.785Z,11.53
2018-03-30T03:11:30.891Z,9.75
2018-03-30T03:14:00.020Z,14.67
2018-03-30T03:16:29.870Z,11.00
2018-03-30T03:18:58.999Z,9.77
2018-03-30T03:21:28.118Z,10.68
2018-03-30T03:23:58.002Z,11.00
2018-03-30T03:26:27.882Z,11.07
2018-03-30T03:28:56.977Z,12.40
2018-03-30T03:31:26.072Z,11.43
2018-03-30T03:33:55.160Z,10.60
2018-03-30T03:36:24.267Z,9.23
2018-03-30T03:38:53.458Z,10.23
2018-03-30T03:41:22.573Z,9.77
2018-03-30T03:43:51.687Z,8.93
2018-03-30T03:48:55.917Z,11.40
2018-03-30T03:51:25.022Z,11.30
2018-03-30T03:53:54.140Z,8.20
2018-03-30T03:56:23.247Z,8.70
2018-03-30T03:58:53.106Z,9.87
2018-03-30T04:01:22.195Z,9.07
2018-03-30T04:03:51.295Z,12.83
2018-03-30T04:06:20.429Z,14.07
2018-03-30T04:08:49.519Z,15.02
2018-03-30T04:11:18.623Z,19.08
2018-03-30T04:13:48.504Z,17.50
2018-03-30T04:16:17.616Z,20.90
2018-03-30T04:18:46.717Z,17.93
2018-03-30T04:21:15.818Z,18.43
2018-03-30T04:23:44.966Z,17.33
2018-03-30T04:26:14.054Z,15.07
2018-03-30T04:28:43.216Z,15.87
2018-03-30T04:31:13.530Z,22.47
2018-03-30T04:33:42.641Z,15.60
2018-03-30T04:36:13.742Z,18.57
2018-03-30T04:38:42.888Z,18.40
2018-03-30T04:41:11.985Z,21.63
2018-03-30T04:43:41.864Z,20.07
2018-03-30T04:46:10.972Z,21.30
2018-03-30T04:48:40.082Z,20.97
2018-03-30T04:51:09.943Z,27.03
2018-03-30T04:53:39.061Z,21.57
2018-03-30T04:56:08.191Z,27.73
2018-03-30T04:58:38.050Z,22.63
2018-03-30T05:01:07.152Z,20.93
2018-03-30T05:03:36.259Z,21.80
2018-03-30T05:06:05.399Z,20.07
2018-03-30T05:08:35.258Z,20.83
2018-03-30T05:11:04.375Z,19.97
2018-03-30T05:13:33.474Z,21.10
2018-03-30T05:16:02.592Z,23.65
2018-03-30T05:18:32.452Z,20.73
2018-03-30T05:21:01.581Z,19.27
2018-03-30T05:23:30.666Z,22.97
2018-03-30T05:25:59.770Z,20.47
2018-03-30T05:28:28.865Z,22.30
2018-03-30T05:30:57.998Z,25.30
2018-03-30T05:33:27.859Z,20.33
2018-03-30T05:35:58.172Z,20.83
2018-03-30T05:38:27.281Z,21.23
2018-03-30T05:40:56.385Z,24.70
2018-03-30T05:43:25.520Z,23.43
2018-03-30T05:45:55.400Z,20.98
2018-03-30T05:48:24.506Z,24.03
2018-03-30T05:50:53.610Z,24.75
2018-03-30T05:53:22.726Z,23.33
2018-03-30T05:55:52.611Z,25.40
2018-03-30T05:58:21.743Z,23.95
2018-03-30T06:00:51.611Z,24.67
2018-03-30T06:03:20.747Z,25.63
2018-03-30T06:05:49.839Z,20.20
2018-03-30T06:08:19.734Z,22.83
2018-03-30T06:10:48.830Z,27.80
2018-03-30T06:13:17.994Z,26.00
2018-03-30T06:15:47.188Z,24.03
2018-03-30T06:18:16.332Z,25.40
2018-03-30T06:20:45.454Z,24.77
2018-03-30T06:23:14.558Z,21.63
2018-03-30T06:25:43.677Z,24.85
2018-03-30T06:28:13.692Z,24.02
2018-03-30T06:30:42.800Z,23.20
2018-03-30T06:33:11.921Z,24.67
2018-03-30T06:35:41.021Z,25.80
2018-03-30T06:38:10.201Z,24.27
2018-03-30T06:40:39.299Z,22.23
2018-03-30T06:43:08.420Z,23.27
2018-03-30T06:45:38.290Z,28.10
2018-03-30T06:48:07.417Z,25.10
2018-03-30T06:50:36.538Z,21.97
2018-03-30T06:53:06.904Z,23.23
2018-03-30T06:55:36.007Z,26.60
2018-03-30T06:58:05.114Z,20.90
2018-03-30T07:00:34.218Z,20.73
2018-03-30T07:03:03.328Z,19.00
2018-03-30T07:05:32.459Z,21.23
2018-03-30T07:08:02.395Z,19.20
2018-03-30T07:10:32.288Z,28.00
2018-03-30T07:13:01.419Z,21.03
2018-03-30T07:15:30.533Z,22.70
2018-03-30T07:17:59.673Z,23.27
2018-03-30T07:20:28.796Z,19.85
2018-03-30T07:22:57.915Z,23.12
2018-03-30T07:25:27.035Z,17.97
2018-03-30T07:27:56.151Z,24.03
2018-03-30T07:30:25.269Z,17.87
2018-03-30T07:32:54.386Z,16.93
2018-03-30T07:35:23.514Z,23.23
2018-03-30T07:37:52.636Z,18.13
2018-03-30T07:40:22.521Z,20.10
2018-03-30T07:42:51.631Z,20.77
2018-03-30T07:45:20.760Z,18.83
2018-03-30T07:47:49.872Z,21.43
2018-03-30T07:50:18.978Z,21.50
2018-03-30T07:52:48.111Z,21.17
2018-03-30T07:55:17.237Z,19.87
2018-03-30T07:57:46.350Z,15.33
2018-03-30T08:00:15.454Z,18.40
2018-03-30T08:02:44.613Z,20.43
2018-03-30T08:05:13.844Z,21.70
2018-03-30T08:07:42.976Z,19.60
2018-03-30T08:10:12.095Z,18.53
2018-03-30T08:12:41.227Z,19.80
2018-03-30T08:15:10.355Z,17.80
2018-03-30T08:17:39.468Z,20.53
2018-03-30T08:20:08.565Z,16.13
2018-03-30T08:22:37.706Z,17.60
2018-03-30T08:25:07.615Z,17.97
2018-03-30T08:27:37.512Z,16.00
2018-03-30T08:30:06.626Z,16.93
2018-03-30T08:32:36.526Z,19.47
2018-03-30T08:35:05.656Z,15.70
2018-03-30T08:37:35.577Z,13.40
2018-03-30T08:40:04.725Z,13.90
2018-03-30T08:42:33.859Z,10.60
2018-03-30T08:45:02.984Z,15.73
2018-03-30T08:47:32.073Z,13.07
2018-03-30T08:50:01.195Z,12.33
2018-03-30T08:52:30.298Z,14.93
2018-03-30T08:54:59.428Z,17.50
2018-03-30T08:57:29.335Z,11.93
2018-03-30T08:59:58.461Z,9.50
2018-03-30T09:02:27.576Z,9.43
2018-03-30T09:04:56.720Z,13.07
2018-03-30T09:07:25.832Z,13.97
2018-03-30T09:09:55.746Z,11.80
2018-03-30T09:12:25.623Z,9.60
2018-03-30T09:14:54.751Z,11.43
2018-03-30T09:17:24.640Z,10.80
2018-03-30T09:19:53.769Z,11.07
2018-03-30T09:22:23.678Z,11.30
2018-03-30T09:24:53.538Z,9.63
2018-03-30T09:27:22.663Z,8.73
2018-03-30T09:29:52.976Z,11.27
2018-03-30T09:32:22.090Z,10.17
2018-03-30T09:34:51.213Z,8.13
2018-03-30T09:37:21.098Z,9.43
2018-03-30T09:39:50.235Z,9.43
2018-03-30T09:42:20.139Z,14.40
2018-03-30T09:44:50.030Z,13.40
2018-03-30T09:47:19.150Z,9.10
2018-03-30T09:49:48.266Z,11.47
2018-03-30T09:52:17.415Z,9.43
2018-03-30T09:54:47.278Z,10.80
2018-03-30T09:57:16.406Z,11.10
2018-03-30T09:59:45.516Z,9.50
2018-03-30T10:02:14.682Z,9.17
2018-03-30T10:04:44.723Z,7.13
2018-03-30T10:07:14.086Z,10.30
2018-03-30T10:09:43.205Z,9.60
2018-03-30T10:12:12.314Z,7.13
2018-03-30T10:14:41.448Z,7.63
2018-03-30T10:17:11.328Z,9.83
2018-03-30T10:19:40.465Z,11.30
2018-03-30T10:22:09.587Z,12.30
2018-03-30T10:24:38.727Z,11.43
2018-03-30T10:27:07.831Z,8.77
2018-03-30T10:29:36.981Z,10.03
2018-03-30T10:32:06.113Z,8.60
2018-03-30T10:34:35.224Z,7.63
2018-03-30T10:37:04.335Z,9.73
2018-03-30T10:39:34.218Z,7.13
2018-03-30T10:42:03.384Z,11.43
2018-03-30T10:44:32.504Z,8.40
2018-03-30T10:47:01.632Z,10.60
2018-03-30T10:49:30.732Z,6.37
2018-03-30T10:51:59.868Z,12.77
2018-03-30T10:54:28.983Z,8.25
2018-03-30T10:56:58.108Z,7.50
2018-03-30T10:59:27.204Z,7.65
2018-03-30T11:01:56.340Z,8.10
2018-03-30T11:04:25.445Z,8.35
2018-03-30T11:06:54.558Z,6.20
2018-03-30T11:09:23.678Z,6.37
2018-03-30T11:11:52.827Z,6.70
2018-03-30T11:14:21.951Z,6.23
2018-03-30T11:16:51.058Z,6.93
2018-03-30T11:19:20.182Z,5.53
2018-03-30T11:21:49.328Z,5.90
2018-03-30T11:24:18.447Z,4.95
2018-03-30T11:26:47.547Z,6.63
2018-03-30T11:29:16.677Z,8.90
2018-03-30T11:31:45.788Z,7.23
2018-03-30T11:34:15.658Z,6.63
2018-03-30T11:36:44.795Z,4.90
2018-03-30T11:39:14.302Z,5.57
2018-03-30T11:41:45.251Z,5.50
2018-03-30T11:44:16.040Z,9.15
2018-03-30T11:46:45.159Z,5.97
2018-03-30T11:49:15.377Z,5.70
2018-03-30T11:51:44.510Z,7.00
2018-03-30T11:54:14.225Z,5.27
2018-03-30T11:56:44.156Z,7.33
2018-03-30T11:59:14.213Z,4.90
2018-03-30T12:01:43.351Z,4.73
2018-03-30T12:04:14.465Z,4.43
2018-03-30T12:06:43.585Z,4.93
2018-03-30T12:09:12.699Z,6.57
2018-03-30T12:11:41.922Z,8.03
2018-03-30T12:14:11.073Z,8.80
2018-03-30T12:16:40.249Z,4.60
2018-03-30T12:19:09.381Z,4.07
2018-03-30T12:21:38.514Z,3.90
2018-03-30T12:24:07.912Z,3.80
2018-03-30T12:26:37.796Z,3.83
2018-03-30T12:29:07.688Z,6.23
2018-03-30T12:31:36.800Z,6.00
2018-03-30T12:34:06.700Z,4.87
2018-03-30T12:36:35.823Z,8.40
2018-03-30T12:39:04.954Z,4.37
2018-03-30T12:41:34.110Z,6.83
2018-03-30T12:44:03.223Z,4.60
2018-03-30T12:46:32.354Z,4.43
2018-03-30T12:49:01.470Z,5.17
2018-03-30T12:51:30.600Z,5.07
2018-03-30T12:53:59.701Z,5.60
2018-03-30T12:56:29.622Z,5.35
2018-03-30T12:58:59.470Z,5.33
2018-03-30T13:01:28.596Z,4.07
2018-03-30T13:03:57.717Z,3.73
2018-03-30T13:06:27.632Z,4.07
2018-03-30T13:08:57.551Z,7.27
2018-03-30T13:11:27.497Z,7.22
2018-03-30T13:13:56.634Z,7.17
2018-03-30T13:16:25.761Z,11.32
2018-03-30T13:18:55.654Z,11.27
2018-03-30T13:21:24.775Z,4.07
2018-03-30T13:23:53.904Z,4.13
2018-03-30T13:26:23.814Z,4.85
2018-03-30T13:28:52.935Z,4.30
2018-03-30T13:31:22.085Z,7.83
2018-03-30T13:33:51.965Z,4.03
2018-03-30T13:36:21.074Z,5.93
2018-03-30T13:38:50.219Z,5.37
2018-03-30T13:41:19.351Z,9.37
2018-03-30T13:43:48.456Z,5.67
2018-03-30T13:46:17.601Z,5.47
2018-03-30T13:48:47.696Z,5.47
2018-03-30T13:51:28.330Z,2.93
2018-03-30T13:54:13.104Z,9.68
2018-03-30T13:56:45.713Z,4.47
2018-03-30T13:59:21.284Z,4.03
2018-03-30T14:02:00.674Z,2.23
2018-03-30T14:08:09.058Z,3.50
2018-03-30T14:10:55.930Z,4.07
2018-03-30T14:13:25.816Z,3.97
2018-03-30T14:15:57.524Z,5.13
2018-03-30T14:18:27.569Z,2.93
2018-03-30T14:21:01.007Z,3.30
2018-03-30T14:23:31.584Z,5.00
2018-03-30T14:29:40.929Z,4.50
2018-03-30T14:32:17.449Z,4.87
2018-03-30T14:34:54.626Z,4.43
2018-03-30T14:37:37.184Z,4.87
2018-03-30T14:40:23.916Z,3.00
2018-03-30T14:43:09.126Z,3.47
2018-03-30T14:45:38.967Z,4.73
2018-03-30T14:48:08.854Z,4.30
2018-03-30T14:50:48.390Z,4.50
2018-03-30T14:53:22.892Z,6.93
2018-03-30T14:59:28.082Z,3.30
2018-03-30T15:02:00.692Z,4.22
2018-03-30T15:04:42.337Z,4.30
2018-03-30T15:07:17.917Z,3.67
2018-03-30T15:15:39.642Z,2.77
2018-03-30T15:18:18.923Z,4.17
2018-03-30T15:20:51.966Z,1.90
2018-03-30T15:23:34.762Z,2.20
2018-03-30T15:26:10.384Z,2.77
2018-03-30T15:28:46.734Z,2.60
2018-03-30T15:31:36.955Z,2.20
2018-03-30T15:34:31.793Z,2.43
2018-03-30T15:37:15.328Z,1.80
2018-03-30T15:40:13.281Z,3.90
2018-03-30T15:46:00.984Z,3.90
2018-03-30T15:48:30.106Z,3.13
2018-03-30T15:51:05.006Z,2.77
2018-03-30T15:53:33.351Z,2.93
2018-03-30T15:56:03.212Z,4.32
2018-03-30T15:58:33.110Z,3.70
2018-03-30T16:01:02.210Z,5.32
2018-03-30T16:03:31.353Z,2.83
2018-03-30T16:06:00.508Z,3.70
2018-03-30T16:08:29.624Z,3.40
2018-03-30T16:11:13.504Z,2.12
2018-03-30T16:13:42.647Z,2.07
2018-03-30T16:16:11.755Z,3.20
2018-03-30T16:18:56.038Z,2.00
2018-03-30T16:21:24.408Z,5.33
2018-03-30T16:23:52.723Z,3.30
2018-03-30T16:26:21.069Z,3.37
2018-03-30T16:28:50.166Z,3.10
2018-03-30T16:31:18.495Z,2.95
2018-03-30T16:33:46.786Z,2.70
2018-03-30T16:36:15.899Z,5.63
2018-03-30T16:38:44.231Z,3.50
2018-03-30T16:41:12.558Z,7.23
2018-03-30T16:43:40.878Z,6.40
2018-03-30T16:46:09.220Z,8.43
2018-03-30T16:48:37.543Z,8.30
2018-03-30T16:51:05.876Z,7.45
2018-03-30T16:53:34.999Z,8.33
2018-03-30T16:56:03.361Z,5.60
2018-03-30T16:58:31.690Z,10.50
2018-03-30T17:01:00.761Z,5.63
2018-03-30T17:03:29.103Z,4.50
2018-03-30T17:05:57.451Z,6.07
2018-03-30T17:08:25.766Z,9.40
2018-03-30T17:10:54.114Z,4.00
2018-03-30T17:13:22.457Z,7.70
2018-03-30T17:15:50.789Z,5.77
2018-03-30T17:18:19.124Z,5.80
2018-03-30T17:20:47.466Z,6.80
2018-03-30T17:23:15.808Z,6.60
2018-03-30T17:25:44.116Z,5.17
2018-03-30T17:28:12.437Z,8.00
2018-03-30T17:30:40.808Z,6.30
2018-03-30T17:33:09.136Z,9.00
2018-03-30T17:35:37.446Z,14.63
2018-03-30T17:38:05.765Z,9.20
2018-03-30T17:40:34.871Z,11.13
2018-03-30T17:43:03.205Z,17.87
2018-03-30T17:45:31.551Z,8.50
2018-03-30T17:47:59.854Z,10.67
2018-03-30T17:50:28.182Z,5.23
2018-03-30T17:52:56.500Z,7.12
2018-03-30T17:55:24.824Z,6.90
2018-03-30T17:57:53.903Z,6.23
2018-03-30T18:00:22.246Z,10.07
2018-03-30T18:02:50.603Z,6.47
2018-03-30T18:05:19.676Z,7.03
2018-03-30T18:07:48.033Z,6.53
2018-03-30T18:10:16.378Z,4.10
2018-03-30T18:12:45.475Z,4.90
2018-03-30T18:15:14.818Z,6.80
2018-03-30T18:17:43.140Z,7.03
2018-03-30T18:20:11.481Z,6.95
2018-03-30T18:22:39.822Z,7.90
2018-03-30T18:25:08.153Z,9.40
2018-03-30T18:27:37.282Z,7.47
2018-03-30T18:30:05.585Z,8.50
2018-03-30T18:32:33.954Z,9.10
2018-03-30T18:35:02.319Z,11.57
2018-03-30T18:37:30.644Z,8.00
2018-03-30T18:39:58.957Z,7.23
2018-03-30T18:42:27.308Z,9.07
2018-03-30T18:44:56.413Z,8.70
2018-03-30T18:47:25.515Z,11.60
2018-03-30T18:49:54.605Z,8.17
2018-03-30T18:52:23.697Z,8.23
2018-03-30T18:54:53.514Z,8.57
2018-03-30T18:57:22.610Z,7.27
2018-03-30T18:59:52.944Z,8.17
2018-03-30T19:02:21.311Z,10.00
2018-03-30T19:04:50.400Z,5.65
2018-03-30T19:07:18.714Z,6.30
2018-03-30T19:09:47.045Z,5.30
2018-03-30T19:12:15.392Z,7.33
2018-03-30T19:14:43.784Z,5.03
2018-03-30T19:17:12.089Z,8.77
2018-03-30T19:19:41.198Z,5.53
2018-03-30T19:22:10.282Z,6.47
2018-03-30T19:24:39.350Z,7.90
2018-03-30T19:27:08.455Z,7.72
2018-03-30T19:29:36.818Z,8.53
2018-03-30T19:32:05.140Z,7.37
2018-03-30T19:34:34.232Z,8.50
2018-03-30T19:37:02.579Z,7.77
2018-03-30T19:39:30.905Z,6.83
2018-03-30T19:41:59.271Z,10.87
2018-03-30T19:44:27.585Z,7.87
2018-03-30T19:46:55.924Z,7.97
2018-03-30T19:49:25.020Z,6.00
2018-03-30T19:51:54.104Z,7.70
2018-03-30T19:54:23.225Z,11.20
2018-03-30T19:56:53.421Z,6.60
2018-03-30T19:59:21.726Z,6.20
2018-03-30T20:01:50.039Z,6.57
2018-03-30T20:04:18.358Z,9.53
2018-03-30T20:06:46.692Z,4.37
2018-03-30T20:09:15.011Z,11.90
2018-03-30T20:11:43.338Z,4.23
2018-03-30T20:14:11.634Z,4.93
2018-03-30T20:16:40.029Z,3.70
2018-03-30T20:19:09.112Z,5.70
2018-03-30T20:21:37.446Z,3.73
2018-03-30T20:24:05.744Z,2.73
2018-03-30T20:26:34.078Z,2.60
2018-03-30T20:29:02.395Z,3.40
2018-03-30T20:31:30.736Z,3.27
2018-03-30T20:33:59.839Z,3.00
2018-03-30T20:36:28.927Z,2.07
2018-03-30T20:38:57.302Z,2.58
2018-03-30T20:41:26.387Z,2.00
2018-03-30T20:43:54.728Z,3.17
2018-03-30T20:46:23.788Z,2.80
2018-03-30T20:48:52.735Z,2.10
2018-03-30T20:51:21.045Z,3.53
2018-03-30T20:53:49.390Z,2.80
2018-03-30T20:56:17.721Z,3.93
2018-03-30T20:58:46.767Z,4.20
2018-03-30T21:01:15.126Z,1.70
2018-03-30T21:03:43.460Z,3.13
2018-03-30T21:06:12.539Z,2.20
2018-03-30T21:08:40.871Z,3.03
2018-03-30T21:11:09.187Z,2.00
2018-03-30T21:13:37.519Z,3.23
2018-03-30T21:16:05.828Z,4.43
2018-03-30T21:18:34.136Z,2.57
2018-03-30T21:21:03.260Z,3.45
2018-03-30T21:23:31.575Z,2.77
2018-03-30T21:25:59.918Z,2.37
2018-03-30T21:28:28.225Z,2.50
2018-03-30T21:30:56.548Z,2.37
2018-03-30T21:33:25.630Z,2.70
2018-03-30T21:35:53.933Z,2.00
2018-03-30T21:38:22.262Z,3.27
2018-03-30T21:40:50.578Z,2.53
2018-03-30T21:43:18.930Z,2.87
2018-03-30T21:45:47.231Z,3.33
2018-03-30T21:48:15.564Z,2.70
2018-03-30T21:50:43.865Z,2.53
2018-03-30T21:53:12.213Z,4.17
2018-03-30T21:55:40.508Z,8.10
2018-03-30T21:58:08.824Z,3.10
2018-03-30T22:00:37.126Z,4.83
2018-03-30T22:03:06.233Z,4.50
2018-03-30T22:05:34.533Z,5.10
2018-03-30T22:08:02.861Z,7.00
2018-03-30T22:10:31.183Z,4.93
2018-03-30T22:12:59.513Z,4.50
2018-03-30T22:15:28.580Z,3.60
2018-03-30T22:17:56.879Z,3.60
2018-03-30T22:20:25.954Z,3.37
2018-03-30T22:22:54.255Z,2.80
2018-03-30T22:25:22.591Z,6.30
2018-03-30T22:27:50.891Z,3.00
2018-03-30T22:30:19.213Z,3.10
2018-03-30T22:32:47.506Z,6.10
2018-03-30T22:35:15.824Z,3.97
2018-03-30T22:37:44.124Z,4.63
2018-03-30T22:40:12.422Z,3.37
2018-03-30T22:42:40.751Z,2.87
2018-03-30T22:45:09.079Z,3.23
2018-03-30T22:47:37.370Z,2.50
2018-03-30T22:50:05.734Z,2.77
2018-03-30T22:52:34.025Z,2.90
2018-03-30T22:55:02.360Z,2.40
2018-03-30T22:57:31.438Z,3.10
2018-03-30T23:00:00.549Z,4.07
2018-03-30T23:02:28.857Z,4.47
2018-03-30T23:04:57.197Z,4.20
2018-03-30T23:07:25.527Z,5.50
2018-03-30T23:09:53.846Z,2.70
2018-03-30T23:12:22.910Z,2.57
2018-03-30T23:14:51.273Z,4.60
2018-03-30T23:17:19.609Z,3.47
2018-03-30T23:19:47.907Z,2.78
2018-03-30T23:22:16.248Z,2.73
2018-03-30T23:24:44.564Z,2.60
2018-03-30T23:27:12.937Z,3.33
2018-03-30T23:29:41.990Z,2.20
2018-03-30T23:32:10.291Z,3.73
2018-03-30T23:34:39.387Z,3.13
2018-03-30T23:37:08.475Z,3.10
2018-03-30T23:39:37.552Z,4.00
2018-03-30T23:42:05.852Z,3.27
2018-03-30T23:44:34.931Z,2.50
2018-03-30T23:47:03.252Z,3.07
2018-03-30T23:49:31.555Z,2.27
2018-03-30T23:51:59.858Z,7.10
2018-03-30T23:54:28.193Z,2.27
2018-03-30T23:56:56.494Z,4.30
2018-03-30T23:59:24.798Z,9.07
